KGOO

Nevada County Airport

Grass Valley, California, USA
METAR KGOO 140430Z AUTO 00000KT 10SM CLR 10/M05 A3040 RMK AO1
Observed Flight Rules
Nov-14 @ 04:30 UTC (38 minutes ago) Visual Flight Rules
Visibility Clouds
10 miles
  • Clear skies
Temperatures Readings
Current 10°C / 50°F
Dewpoint -5°C / 23°F
Humidity 35%
Altimeter 30.4" Hg
Pressure 1029 hPa
Elevation 962
METAR KGOO 140430Z AUTO 00000KT 10SM CLR 10/M05 A3040 RMK AO1
Observed Flight Rules
Nov-14 @ 04:30 UTC
(38 minutes ago)
VFR
Clouds
  • Clear skies
Temperature Dewpoint
10°C / 50°F -5°C / 23°F
Humidity Altimeter Pressure
35% 30.4" Hg 1029 hPa